createdAt,value
2018-05-04T00:02:31.847Z,100020.56
2018-05-04T00:05:05.408Z,100023.52
2018-05-04T00:07:42.133Z,100018.48
2018-05-04T00:10:19.240Z,100024.54
2018-05-04T00:12:55.114Z,100025.14
2018-05-04T00:15:28.939Z,100019.09
2018-05-04T00:18:02.280Z,100028.85
2018-05-04T00:20:40.721Z,100029.34
2018-05-04T00:23:14.873Z,100038.00
2018-05-04T00:25:51.728Z,100044.85
2018-05-04T00:28:27.691Z,100044.44
2018-05-04T00:31:06.192Z,100042.04
2018-05-04T00:33:44.127Z,100046.38
2018-05-04T00:36:21.154Z,100040.01
2018-05-04T00:38:59.354Z,100037.66
2018-05-04T00:41:34.953Z,100038.45
2018-05-04T00:44:10.210Z,100039.80
2018-05-04T00:46:44.015Z,100053.39
2018-05-04T00:49:17.438Z,100049.10
2018-05-04T00:51:51.008Z,100045.50
2018-05-04T00:54:28.581Z,100045.45
2018-05-04T00:57:03.629Z,100048.06
2018-05-04T00:59:39.338Z,100041.43
2018-05-04T01:02:14.991Z,100040.61
2018-05-04T01:07:29.000Z,100036.44
2018-05-04T01:10:02.668Z,100048.79
2018-05-04T01:12:36.228Z,100050.03
2018-05-04T01:15:09.577Z,100049.05
2018-05-04T01:17:43.773Z,100054.66
2018-05-04T01:20:18.841Z,100059.90
2018-05-04T01:22:57.086Z,100047.94
2018-05-04T01:25:30.468Z,100049.55
2018-05-04T01:28:06.328Z,100045.44
2018-05-04T01:30:39.890Z,100043.64
2018-05-04T01:33:16.148Z,100047.52
2018-05-04T01:35:49.594Z,100047.73
2018-05-04T01:38:26.702Z,100057.17
2018-05-04T01:41:00.076Z,100052.66
2018-05-04T01:43:33.455Z,100055.72
2018-05-04T01:46:09.416Z,100057.30
2018-05-04T01:48:42.781Z,100063.55
2018-05-04T01:51:16.648Z,100067.21
2018-05-04T01:53:50.611Z,100069.84
2018-05-04T01:56:24.124Z,100070.44
2018-05-04T01:58:59.594Z,100066.48
2018-05-04T02:01:34.555Z,100074.66
2018-05-04T02:04:08.056Z,100077.08
2018-05-04T02:06:43.765Z,100066.58
2018-05-04T02:09:17.143Z,100073.02
2018-05-04T02:11:52.564Z,100063.68
2018-05-04T02:14:25.906Z,100070.20
2018-05-04T02:16:59.320Z,100070.64
2018-05-04T02:19:33.007Z,100071.28
2018-05-04T02:22:08.790Z,100071.77
2018-05-04T02:24:45.336Z,100073.36
2018-05-04T02:27:23.433Z,100072.42
2018-05-04T02:29:58.702Z,100078.81
2018-05-04T02:32:34.239Z,100073.80
2018-05-04T02:35:07.598Z,100075.49
2018-05-04T02:37:44.619Z,100076.02
2018-05-04T02:40:18.114Z,100075.21
2018-05-04T02:45:20.315Z,100070.40
2018-05-04T02:47:55.939Z,100077.63
2018-05-04T02:50:29.330Z,100080.87
2018-05-04T02:53:05.464Z,100082.81
2018-05-04T02:55:41.026Z,100084.56
2018-05-04T02:58:14.336Z,100084.74
2018-05-04T03:00:48.204Z,100075.70
2018-05-04T03:03:21.544Z,100076.86
2018-05-04T03:05:59.490Z,100078.65
2018-05-04T03:08:34.125Z,100081.66
2018-05-04T03:11:07.780Z,100075.66
2018-05-04T03:13:42.829Z,100077.45
2018-05-04T03:16:17.122Z,100072.92
2018-05-04T03:18:51.119Z,100074.42
2018-05-04T03:21:24.676Z,100076.78
2018-05-04T03:24:00.361Z,100068.45
2018-05-04T03:26:34.051Z,100070.23
2018-05-04T03:29:09.756Z,100071.72
2018-05-04T03:31:45.901Z,100078.59
2018-05-04T03:34:21.640Z,100074.79
2018-05-04T03:36:57.339Z,100084.80
2018-05-04T03:39:31.115Z,100081.52
2018-05-04T03:42:05.017Z,100082.52
2018-05-04T03:44:38.384Z,100085.83
2018-05-04T03:47:15.294Z,100088.23
2018-05-04T03:49:49.040Z,100087.87
2018-05-04T03:52:22.379Z,100093.69
2018-05-04T03:54:56.374Z,100094.38
2018-05-04T03:57:40.482Z,100101.20
2018-05-04T04:02:26.944Z,100103.30
2018-05-04T04:05:02.370Z,100102.59
2018-05-04T04:07:35.833Z,100109.59
2018-05-04T04:10:09.635Z,100111.89
2018-05-04T04:12:45.210Z,100108.59
2018-05-04T04:15:18.616Z,100113.62
2018-05-04T04:17:54.470Z,100109.41
2018-05-04T04:20:28.024Z,100108.09
2018-05-04T04:23:01.341Z,100101.96
2018-05-04T04:25:36.707Z,100105.72
2018-05-04T04:28:11.272Z,100101.55
2018-05-04T04:30:45.022Z,100106.62
2018-05-04T04:33:19.057Z,100119.47
2018-05-04T04:35:52.799Z,100136.56
2018-05-04T04:38:28.499Z,100129.06
2018-05-04T04:41:02.862Z,100130.36
2018-05-04T04:43:36.348Z,100133.42
2018-05-04T04:46:13.869Z,100139.03
2018-05-04T04:49:51.889Z,100137.98
2018-05-04T04:52:25.167Z,100133.30
2018-05-04T04:54:58.530Z,100144.33
2018-05-04T04:57:34.673Z,100148.70
2018-05-04T05:00:10.367Z,100138.91
2018-05-04T05:02:47.586Z,100143.20
2018-05-04T05:05:22.275Z,100147.48
2018-05-04T05:10:36.768Z,100140.39
2018-05-04T05:13:15.724Z,100144.16
2018-05-04T05:18:20.053Z,100149.96
2018-05-04T05:21:00.017Z,100152.94
2018-05-04T05:23:38.485Z,100151.68
2018-05-04T05:26:13.348Z,100158.19
2018-05-04T05:28:47.120Z,100157.69
2018-05-04T05:31:29.540Z,100159.55
2018-05-04T05:34:06.398Z,100161.23
2018-05-04T05:36:40.437Z,100164.28
2018-05-04T05:39:14.546Z,100171.83
2018-05-04T05:41:48.221Z,100172.72
2018-05-04T05:44:23.088Z,100171.93
2018-05-04T05:46:57.628Z,100168.34
2018-05-04T05:49:31.063Z,100163.53
2018-05-04T05:52:05.074Z,100171.83
2018-05-04T05:54:38.579Z,100169.02
2018-05-04T05:57:11.993Z,100179.63
2018-05-04T05:59:45.777Z,100176.53
2018-05-04T06:02:24.893Z,100179.56
2018-05-04T06:05:03.451Z,100181.91
2018-05-04T06:07:37.829Z,100184.30
2018-05-04T06:10:13.543Z,100175.82
2018-05-04T06:12:50.786Z,100178.22
2018-05-04T06:15:26.035Z,100185.22
2018-05-04T06:18:05.080Z,100187.83
2018-05-04T06:20:38.733Z,100186.63
2018-05-04T06:23:12.812Z,100177.77
2018-05-04T06:25:47.779Z,100194.06
2018-05-04T06:28:23.763Z,100192.48
2018-05-04T06:30:57.793Z,100195.44
2018-05-04T06:33:31.891Z,100197.45
2018-05-04T06:36:06.481Z,100200.38
2018-05-04T06:38:40.576Z,100192.78
2018-05-04T06:41:14.276Z,100192.06
2018-05-04T06:43:51.676Z,100193.64
2018-05-04T06:46:26.439Z,100190.63
2018-05-04T06:49:01.933Z,100200.61
2018-05-04T06:51:36.603Z,100201.95
2018-05-04T06:54:10.678Z,100199.32
2018-05-04T06:56:47.973Z,100200.98
2018-05-04T06:59:21.542Z,100195.39
2018-05-04T07:01:55.722Z,100195.15
2018-05-04T07:04:32.153Z,100203.81
2018-05-04T07:07:06.756Z,100207.75
2018-05-04T07:09:44.503Z,100203.52
2018-05-04T07:12:21.123Z,100204.48
2018-05-04T07:14:54.953Z,100207.95
2018-05-04T07:17:28.632Z,100206.92
2018-05-04T07:20:04.137Z,100208.03
2018-05-04T07:22:38.117Z,100218.52
2018-05-04T07:25:12.340Z,100209.38
2018-05-04T07:27:46.322Z,100210.30
2018-05-04T07:30:22.193Z,100207.64
2018-05-04T07:32:57.723Z,100207.86
2018-05-04T07:35:33.604Z,100209.56
2018-05-04T07:38:10.251Z,100210.52
2018-05-04T07:40:44.986Z,100211.80
2018-05-04T07:43:18.661Z,100216.68
2018-05-04T07:45:52.348Z,100229.27
2018-05-04T07:48:28.319Z,100223.42
2018-05-04T07:51:04.083Z,100233.97
2018-05-04T07:53:38.818Z,100245.94
2018-05-04T07:56:15.610Z,100243.59
2018-05-04T07:58:51.456Z,100247.26
2018-05-04T08:01:27.740Z,100249.80
2018-05-04T08:04:06.355Z,100253.80
2018-05-04T08:06:40.179Z,100259.81
2018-05-04T08:09:18.997Z,100255.70
2018-05-04T08:11:53.367Z,100255.38
2018-05-04T08:14:26.968Z,100268.27
2018-05-04T08:17:00.580Z,100260.48
2018-05-04T08:19:36.480Z,100267.20
2018-05-04T08:22:11.538Z,100256.87
2018-05-04T08:24:45.231Z,100262.71
2018-05-04T08:27:21.946Z,100254.30
2018-05-04T08:29:57.982Z,100258.82
2018-05-04T08:32:36.713Z,100258.95
2018-05-04T08:35:14.282Z,100262.45
2018-05-04T08:37:49.591Z,100266.80
2018-05-04T08:40:23.568Z,100267.22
2018-05-04T08:42:58.392Z,100266.84
2018-05-04T08:45:31.786Z,100265.38
2018-05-04T08:48:06.767Z,100264.39
2018-05-04T08:50:42.955Z,100266.59
2018-05-04T08:53:19.644Z,100266.36
2018-05-04T08:55:58.244Z,100264.07
2018-05-04T08:58:32.019Z,100267.34
2018-05-04T09:01:07.463Z,100268.67
2018-05-04T09:03:44.464Z,100267.89
2018-05-04T09:06:21.671Z,100266.35
2018-05-04T09:08:58.036Z,100261.44
2018-05-04T09:11:35.008Z,100270.91
2018-05-04T09:14:08.663Z,100261.39
2018-05-04T09:16:45.413Z,100255.95
2018-05-04T09:19:20.108Z,100262.44
2018-05-04T09:21:54.389Z,100262.90
2018-05-04T09:24:29.970Z,100260.72
2018-05-04T09:27:04.500Z,100270.36
2018-05-04T09:29:38.500Z,100263.61
2018-05-04T09:32:14.474Z,100265.44
2018-05-04T09:34:50.713Z,100265.13
2018-05-04T09:37:31.187Z,100271.34
2018-05-04T09:40:06.613Z,100263.29
2018-05-04T09:42:40.684Z,100275.15
2018-05-04T09:45:14.486Z,100264.57
2018-05-04T09:47:48.782Z,100259.28
2018-05-04T09:50:22.823Z,100268.58
2018-05-04T09:52:56.681Z,100262.14
2018-05-04T09:55:30.625Z,100257.84
2018-05-04T09:58:05.906Z,100260.64
2018-05-04T10:00:44.513Z,100262.25
2018-05-04T10:03:18.533Z,100265.20
2018-05-04T10:05:53.963Z,100256.73
2018-05-04T10:08:31.318Z,100254.89
2018-05-04T10:11:04.919Z,100256.29
2018-05-04T10:13:39.636Z,100259.21
2018-05-04T10:16:15.298Z,100259.37
2018-05-04T10:18:54.576Z,100255.89
2018-05-04T10:21:30.666Z,100253.31
2018-05-04T10:24:11.334Z,100252.83
2018-05-04T10:26:48.585Z,100248.06
2018-05-04T10:29:39.106Z,100248.14
2018-05-04T10:32:32.932Z,100242.79
2018-05-04T10:35:10.745Z,100248.72
2018-05-04T10:37:48.075Z,100246.91
2018-05-04T10:40:29.043Z,100263.72
2018-05-04T10:43:04.503Z,100256.67
2018-05-04T10:45:39.520Z,100263.73
2018-05-04T10:48:17.275Z,100248.83
2018-05-04T10:51:04.722Z,100255.41
2018-05-04T10:53:40.254Z,100250.84
2018-05-04T10:56:30.429Z,100247.82
2018-05-04T10:59:20.795Z,100251.36
2018-05-04T11:02:08.303Z,100249.95
2018-05-04T11:04:47.889Z,100248.38
2018-05-04T11:07:22.809Z,100237.09
2018-05-04T11:09:59.549Z,100246.40
2018-05-04T11:12:43.031Z,100226.50
2018-05-04T11:15:18.071Z,100240.05
2018-05-04T11:17:56.285Z,100215.72
2018-05-04T11:20:33.187Z,100237.91
2018-05-04T11:23:11.560Z,100234.65
2018-05-04T11:25:46.851Z,100239.00
2018-05-04T11:28:29.358Z,100206.78
2018-05-04T11:31:06.351Z,100231.55
2018-05-04T11:33:51.435Z,100232.84
2018-05-04T11:37:01.721Z,100240.91
2018-05-04T11:39:40.704Z,100233.83
2018-05-04T11:42:16.418Z,100235.84
2018-05-04T11:44:53.264Z,100225.60
2018-05-04T11:47:30.377Z,100237.30
2018-05-04T11:50:07.733Z,100232.20
2018-05-04T11:52:43.828Z,100234.16
2018-05-04T11:55:20.105Z,100240.59
2018-05-04T11:57:54.288Z,100232.42
2018-05-04T12:00:28.032Z,100234.16
2018-05-04T12:03:02.088Z,100232.64
2018-05-04T12:05:35.673Z,100230.09
2018-05-04T12:08:11.700Z,100231.03
2018-05-04T12:10:47.584Z,100221.12
2018-05-04T12:13:23.316Z,100234.75
2018-05-04T12:15:56.995Z,100236.25
2018-05-04T12:18:30.775Z,100236.97
2018-05-04T12:21:05.509Z,100235.52
2018-05-04T12:23:41.981Z,100233.02
2018-05-04T12:26:17.034Z,100234.95
2018-05-04T12:28:50.906Z,100224.77
2018-05-04T12:31:27.612Z,100229.47
2018-05-04T12:34:03.860Z,100241.38
2018-05-04T12:36:37.509Z,100230.34
2018-05-04T12:39:13.481Z,100238.84
2018-05-04T12:41:49.168Z,100233.84
2018-05-04T12:44:25.251Z,100231.19
2018-05-04T12:47:02.696Z,100229.28
2018-05-04T12:49:37.338Z,100227.50
2018-05-04T12:52:13.564Z,100232.67
2018-05-04T12:54:47.268Z,100231.22
2018-05-04T12:57:23.334Z,100229.63
2018-05-04T12:59:58.462Z,100230.50
2018-05-04T13:02:33.040Z,100233.25
2018-05-04T13:05:08.748Z,100235.16
2018-05-04T13:07:45.332Z,100231.08
2018-05-04T13:10:19.760Z,100225.37
2018-05-04T13:12:53.312Z,100225.86
2018-05-04T13:15:29.471Z,100231.52
2018-05-04T13:18:05.737Z,100218.48
2018-05-04T13:20:39.179Z,100218.09
2018-05-04T13:23:13.091Z,100218.77
2018-05-04T13:25:48.930Z,100215.12
2018-05-04T13:28:22.400Z,100218.43
2018-05-04T13:30:57.871Z,100214.17
2018-05-04T13:33:31.990Z,100214.66
2018-05-04T13:36:22.996Z,100213.30
2018-05-04T13:39:04.851Z,100215.48
2018-05-04T13:41:44.095Z,100208.98
2018-05-04T13:44:24.107Z,100201.59
2018-05-04T13:46:59.291Z,100194.54
2018-05-04T13:49:45.307Z,100193.89
2018-05-04T13:52:19.666Z,100197.81
2018-05-04T13:54:53.556Z,100191.41
2018-05-04T13:57:27.448Z,100194.02
2018-05-04T14:00:05.124Z,100195.31
2018-05-04T14:02:40.479Z,100190.91
2018-05-04T14:05:14.349Z,100194.31
2018-05-04T14:07:50.943Z,100200.39
2018-05-04T14:10:32.127Z,100192.74
2018-05-04T14:13:09.616Z,100191.26
2018-05-04T14:15:45.340Z,100190.91
2018-05-04T14:18:24.423Z,100185.62
2018-05-04T14:21:06.873Z,100182.08
2018-05-04T14:23:43.332Z,100186.87
2018-05-04T14:26:17.534Z,100187.95
2018-05-04T14:28:59.118Z,100184.61
2018-05-04T14:31:42.666Z,100185.87
2018-05-04T14:34:17.197Z,100184.95
2018-05-04T14:36:53.614Z,100188.42
2018-05-04T14:39:27.624Z,100183.72
2018-05-04T14:42:07.004Z,100175.77
2018-05-04T14:44:43.322Z,100177.47
2018-05-04T14:47:20.975Z,100184.77
2018-05-04T14:49:55.053Z,100197.20
2018-05-04T14:52:30.708Z,100194.08
2018-05-04T14:55:07.031Z,100196.16
2018-05-04T14:57:45.361Z,100193.50
2018-05-04T15:02:57.578Z,100196.53
2018-05-04T15:05:32.733Z,100191.63
2018-05-04T15:08:06.343Z,100190.57
2018-05-04T15:10:44.819Z,100192.66
2018-05-04T15:13:19.524Z,100195.25
2018-05-04T15:15:57.357Z,100202.93
2018-05-04T15:18:32.267Z,100206.71
2018-05-04T15:21:06.256Z,100193.99
2018-05-04T15:23:42.255Z,100195.62
2018-05-04T15:29:05.512Z,100188.55
2018-05-04T15:31:40.023Z,100200.98
2018-05-04T15:34:32.753Z,100196.08
2018-05-04T15:37:10.646Z,100195.73
2018-05-04T15:39:47.167Z,100195.03
2018-05-04T15:42:21.240Z,100202.09
2018-05-04T15:44:56.741Z,100203.97
2018-05-04T15:47:32.083Z,100200.06
2018-05-04T15:50:10.731Z,100199.94
2018-05-04T15:52:45.612Z,100194.53
2018-05-04T15:55:22.507Z,100197.84
2018-05-04T15:57:55.974Z,100191.30
2018-05-04T16:00:30.995Z,100201.77
2018-05-04T16:03:10.164Z,100183.88
2018-05-04T16:05:43.916Z,100188.89
2018-05-04T16:08:18.881Z,100187.65
2018-05-04T16:10:55.261Z,100184.58
2018-05-04T16:13:29.145Z,100184.69
2018-05-04T16:16:06.098Z,100184.90
2018-05-04T16:18:41.495Z,100186.11
2018-05-04T16:21:16.179Z,100186.00
2018-05-04T16:23:52.735Z,100181.33
2018-05-04T16:26:26.686Z,100184.97
2018-05-04T16:29:01.495Z,100186.77
2018-05-04T16:31:36.896Z,100180.79
2018-05-04T16:34:11.111Z,100191.49
2018-05-04T16:36:44.680Z,100179.30
2018-05-04T16:39:19.594Z,100190.99
2018-05-04T16:41:54.168Z,100179.20
2018-05-04T16:44:27.734Z,100193.06
2018-05-04T16:47:07.233Z,100190.52
2018-05-04T16:49:42.598Z,100192.75
2018-05-04T16:52:19.063Z,100189.87
2018-05-04T16:54:53.187Z,100186.27
2018-05-04T16:57:31.639Z,100190.08
2018-05-04T17:00:10.738Z,100189.77
2018-05-04T17:02:44.572Z,100182.97
2018-05-04T17:05:18.381Z,100193.20
2018-05-04T17:07:52.755Z,100201.33
2018-05-04T17:10:26.261Z,100198.53
2018-05-04T17:13:01.318Z,100202.46
2018-05-04T17:15:35.072Z,100204.16
2018-05-04T17:18:12.474Z,100209.38
2018-05-04T17:20:48.242Z,100203.52
2018-05-04T17:25:48.553Z,100202.92
2018-05-04T17:28:25.225Z,100219.66
2018-05-04T17:31:01.943Z,100214.59
2018-05-04T17:33:36.641Z,100210.02
2018-05-04T17:36:12.322Z,100227.49
2018-05-04T17:38:47.235Z,100219.64
2018-05-04T17:41:20.979Z,100212.87
2018-05-04T17:43:55.111Z,100207.66
2018-05-04T17:46:28.567Z,100215.97
2018-05-04T17:49:03.512Z,100214.79
2018-05-04T17:51:39.654Z,100216.23
2018-05-04T17:54:13.256Z,100224.19
2018-05-04T17:56:46.737Z,100210.86
2018-05-04T17:59:21.117Z,100224.33
2018-05-04T18:01:54.725Z,100223.23
2018-05-04T18:04:28.756Z,100217.70
2018-05-04T18:07:02.587Z,100215.89
2018-05-04T18:09:36.136Z,100216.97
2018-05-04T18:12:11.796Z,100215.37
2018-05-04T18:14:47.743Z,100216.55
2018-05-04T18:17:23.766Z,100220.03
2018-05-04T18:19:58.521Z,100221.03
2018-05-04T18:22:33.337Z,100222.81
2018-05-04T18:25:07.419Z,100221.42
2018-05-04T18:27:41.092Z,100227.20
2018-05-04T18:30:16.192Z,100229.12
2018-05-04T18:32:55.052Z,100223.06
2018-05-04T18:35:29.619Z,100231.23
2018-05-04T18:38:03.392Z,100232.91
2018-05-04T18:40:39.669Z,100236.66
2018-05-04T18:43:15.781Z,100230.31
2018-05-04T18:45:55.695Z,100248.53
2018-05-04T18:48:30.522Z,100242.05
2018-05-04T18:51:04.657Z,100253.30
2018-05-04T18:53:40.025Z,100248.31
2018-05-04T18:56:14.405Z,100256.00
2018-05-04T18:58:51.909Z,100263.81
2018-05-04T19:01:28.133Z,100267.26
2018-05-04T19:04:04.595Z,100275.58
2018-05-04T19:06:41.084Z,100276.05
2018-05-04T19:09:14.755Z,100274.98
2018-05-04T19:11:48.244Z,100274.30
2018-05-04T19:14:22.704Z,100272.41
2018-05-04T19:16:58.794Z,100282.99
2018-05-04T19:19:35.106Z,100285.87
2018-05-04T19:22:08.685Z,100284.91
2018-05-04T19:24:42.116Z,100293.89
2018-05-04T19:27:16.100Z,100289.56
2018-05-04T19:29:54.207Z,100294.94
2018-05-04T19:32:27.975Z,100295.09
2018-05-04T19:35:02.121Z,100297.11
2018-05-04T19:37:37.676Z,100296.72
2018-05-04T19:40:11.954Z,100298.69
2018-05-04T19:42:45.861Z,100305.11
2018-05-04T19:45:20.846Z,100316.27
2018-05-04T19:47:55.684Z,100314.83
2018-05-04T19:50:31.212Z,100317.55
2018-05-04T19:53:06.901Z,100318.56
2018-05-04T19:55:40.458Z,100320.53
2018-05-04T19:58:14.772Z,100329.42
2018-05-04T20:00:50.351Z,100328.72
2018-05-04T20:03:23.788Z,100322.66
2018-05-04T20:05:57.709Z,100326.78
2018-05-04T20:08:32.180Z,100327.78
2018-05-04T20:11:07.991Z,100329.89
2018-05-04T20:13:44.347Z,100328.94
2018-05-04T20:16:17.925Z,100327.73
2018-05-04T20:18:53.387Z,100332.92
2018-05-04T20:21:27.289Z,100330.98
2018-05-04T20:24:02.323Z,100340.43
2018-05-04T20:26:35.709Z,100332.69
2018-05-04T20:29:12.007Z,100343.80
2018-05-04T20:31:48.596Z,100337.62
2018-05-04T20:34:24.891Z,100344.34
2018-05-04T20:37:00.469Z,100346.05
2018-05-04T20:39:37.924Z,100341.38
2018-05-04T20:42:15.331Z,100340.56
2018-05-04T20:44:49.441Z,100340.81
2018-05-04T20:47:25.071Z,100346.59
2018-05-04T20:49:58.796Z,100348.09
2018-05-04T20:52:33.111Z,100350.73
2018-05-04T20:55:11.983Z,100359.61
2018-05-04T20:57:47.361Z,100361.61
2018-05-04T21:00:21.003Z,100359.53
2018-05-04T21:02:57.310Z,100362.98
2018-05-04T21:05:33.383Z,100364.62
2018-05-04T21:08:07.285Z,100365.46
2018-05-04T21:10:40.775Z,100369.03
2018-05-04T21:13:14.413Z,100368.91
2018-05-04T21:15:49.237Z,100366.26
2018-05-04T21:18:24.374Z,100374.51
2018-05-04T21:20:58.324Z,100379.20
2018-05-04T21:23:31.939Z,100374.68
2018-05-04T21:26:06.152Z,100376.84
2018-05-04T21:28:39.737Z,100375.47
2018-05-04T21:31:13.159Z,100375.83
2018-05-04T21:33:46.627Z,100381.02
2018-05-04T21:36:22.399Z,100389.26
2018-05-04T21:38:59.395Z,100387.55
2018-05-04T21:41:35.419Z,100390.27
2018-05-04T21:44:11.491Z,100392.56
2018-05-04T21:46:44.877Z,100392.20
2018-05-04T21:49:18.324Z,100394.06
2018-05-04T21:51:53.840Z,100390.43
2018-05-04T21:54:29.948Z,100401.27
2018-05-04T21:57:05.547Z,100410.57
2018-05-04T21:59:39.313Z,100413.80
2018-05-04T22:02:13.042Z,100409.81
2018-05-04T22:04:46.512Z,100413.06
2018-05-04T22:07:20.444Z,100411.13
2018-05-04T22:09:55.892Z,100408.48
2018-05-04T22:12:29.552Z,100408.55
2018-05-04T22:15:04.034Z,100412.31
2018-05-04T22:17:37.884Z,100412.59
2018-05-04T22:20:13.158Z,100411.53
2018-05-04T22:22:47.206Z,100414.77
2018-05-04T22:25:20.801Z,100418.19
2018-05-04T22:27:56.723Z,100423.27
2018-05-04T22:30:35.047Z,100433.22
2018-05-04T22:33:08.500Z,100433.98
2018-05-04T22:35:42.095Z,100437.73
2018-05-04T22:38:16.065Z,100434.47
2018-05-04T22:40:50.296Z,100438.83
2018-05-04T22:43:23.901Z,100445.17
2018-05-04T22:45:58.789Z,100442.62
2018-05-04T22:48:32.225Z,100436.16
2018-05-04T22:51:05.589Z,100431.86
2018-05-04T22:53:40.612Z,100434.66
2018-05-04T22:56:14.041Z,100445.61
2018-05-04T22:58:47.426Z,100448.13
2018-05-04T23:01:21.843Z,100449.99
2018-05-04T23:03:55.320Z,100450.14
2018-05-04T23:06:28.907Z,100453.52
2018-05-04T23:09:02.745Z,100446.50
2018-05-04T23:11:36.207Z,100459.64
2018-05-04T23:14:09.991Z,100455.53
2018-05-04T23:16:43.554Z,100452.59
2018-05-04T23:19:16.988Z,100452.22
2018-05-04T23:21:50.416Z,100454.23
2018-05-04T23:24:24.035Z,100445.41
2018-05-04T23:26:57.436Z,100448.73
2018-05-04T23:29:30.807Z,100454.36
2018-05-04T23:32:04.616Z,100458.04
2018-05-04T23:34:39.283Z,100460.42
2018-05-04T23:37:13.861Z,100451.16
2018-05-04T23:39:47.321Z,100453.73
2018-05-04T23:42:20.811Z,100452.20
2018-05-04T23:44:54.190Z,100453.08
2018-05-04T23:47:29.050Z,100460.13
2018-05-04T23:50:02.924Z,100457.50
2018-05-04T23:52:36.465Z,100458.73
2018-05-04T23:55:10.093Z,100465.31
2018-05-04T23:57:43.791Z,100470.64
